sensor_id;sensor_type;location;lat;lon;timestamp;pressure;altitude;pressure_sealevel;temperature;humidity
22031;BME280;11179;52.106;21.024;2023-04-19T00:01:44;100776.16;;;10.79;52.79
22031;BME280;11179;52.106;21.024;2023-04-19T00:04:09;100768.75;;;10.79;52.94
22031;BME280;11179;52.106;21.024;2023-04-19T00:06:35;100770.50;;;10.69;53.12
22031;BME280;11179;52.106;21.024;2023-04-19T00:09:00;100773.25;;;10.69;53.43
22031;BME280;11179;52.106;21.024;2023-04-19T00:11:25;100769.66;;;10.68;53.83
22031;BME280;11179;52.106;21.024;2023-04-19T00:13:51;100766.84;;;10.63;53.96
22031;BME280;11179;52.106;21.024;2023-04-19T00:16:16;100759.84;;;10.56;54.26
22031;BME280;11179;52.106;21.024;2023-04-19T00:18:41;100763.84;;;10.48;54.98
22031;BME280;11179;52.106;21.024;2023-04-19T00:21:07;100757.59;;;10.36;55.35
22031;BME280;11179;52.106;21.024;2023-04-19T00:23:33;100752.72;;;10.26;55.64
22031;BME280;11179;52.106;21.024;2023-04-19T00:26:01;100742.59;;;10.27;55.64
22031;BME280;11179;52.106;21.024;2023-04-19T00:28:27;100742.44;;;10.33;55.70
22031;BME280;11179;52.106;21.024;2023-04-19T00:30:53;100745.31;;;10.27;55.81
22031;BME280;11179;52.106;21.024;2023-04-19T00:33:18;100749.50;;;10.29;56.13
22031;BME280;11179;52.106;21.024;2023-04-19T00:35:43;100734.03;;;10.23;56.33
22031;BME280;11179;52.106;21.024;2023-04-19T00:38:09;100737.09;;;10.10;56.57
22031;BME280;11179;52.106;21.024;2023-04-19T00:40:35;100749.38;;;10.07;57.09
22031;BME280;11179;52.106;21.024;2023-04-19T00:43:01;100742.81;;;10.08;57.02
22031;BME280;11179;52.106;21.024;2023-04-19T00:45:27;100742.03;;;9.96;57.26
22031;BME280;11179;52.106;21.024;2023-04-19T00:47:52;100746.81;;;9.89;57.51
22031;BME280;11179;52.106;21.024;2023-04-19T00:50:18;100736.84;;;9.83;58.04
22031;BME280;11179;52.106;21.024;2023-04-19T00:52:44;100736.50;;;9.80;58.13
22031;BME280;11179;52.106;21.024;2023-04-19T00:55:10;100727.44;;;9.79;58.44
22031;BME280;11179;52.106;21.024;2023-04-19T00:57:36;100739.84;;;9.82;58.74
22031;BME280;11179;52.106;21.024;2023-04-19T01:00:02;100734.44;;;9.75;59.24
22031;BME280;11179;52.106;21.024;2023-04-19T01:02:30;100740.16;;;9.73;59.36
22031;BME280;11179;52.106;21.024;2023-04-19T01:04:56;100731.38;;;9.71;59.61
22031;BME280;11179;52.106;21.024;2023-04-19T01:07:21;100720.97;;;9.73;59.80
22031;BME280;11179;52.106;21.024;2023-04-19T01:09:47;100723.03;;;9.66;59.66
22031;BME280;11179;52.106;21.024;2023-04-19T01:12:12;100726.97;;;9.70;59.88
22031;BME280;11179;52.106;21.024;2023-04-19T01:14:38;100716.25;;;9.69;60.33
22031;BME280;11179;52.106;21.024;2023-04-19T01:17:05;100718.03;;;9.63;60.52
22031;BME280;11179;52.106;21.024;2023-04-19T01:19:31;100716.59;;;9.61;60.66
22031;BME280;11179;52.106;21.024;2023-04-19T01:21:58;100710.81;;;9.57;61.12
22031;BME280;11179;52.106;21.024;2023-04-19T01:24:24;100714.03;;;9.54;61.29
22031;BME280;11179;52.106;21.024;2023-04-19T01:26:49;100702.97;;;9.37;61.37
22031;BME280;11179;52.106;21.024;2023-04-19T01:29:14;100694.78;;;9.26;61.79
22031;BME280;11179;52.106;21.024;2023-04-19T01:31:40;100711.09;;;9.21;62.16
22031;BME280;11179;52.106;21.024;2023-04-19T01:34:05;100702.66;;;9.11;62.50
22031;BME280;11179;52.106;21.024;2023-04-19T01:36:30;100708.16;;;9.11;62.50
22031;BME280;11179;52.106;21.024;2023-04-19T01:38:56;100698.88;;;9.00;62.73
22031;BME280;11179;52.106;21.024;2023-04-19T01:41:21;100695.94;;;8.90;63.22
22031;BME280;11179;52.106;21.024;2023-04-19T01:43:51;100697.00;;;8.89;63.21
22031;BME280;11179;52.106;21.024;2023-04-19T01:46:16;100701.50;;;8.83;63.48
22031;BME280;11179;52.106;21.024;2023-04-19T01:48:41;100706.50;;;8.86;63.66
22031;BME280;11179;52.106;21.024;2023-04-19T01:51:06;100699.59;;;8.84;63.86
22031;BME280;11179;52.106;21.024;2023-04-19T01:53:32;100702.22;;;8.79;64.35
22031;BME280;11179;52.106;21.024;2023-04-19T01:55:57;100700.91;;;8.81;64.53
22031;BME280;11179;52.106;21.024;2023-04-19T01:58:22;100688.41;;;8.74;64.80
22031;BME280;11179;52.106;21.024;2023-04-19T02:00:48;100684.84;;;8.73;64.82
22031;BME280;11179;52.106;21.024;2023-04-19T02:03:13;100696.97;;;8.65;65.08
22031;BME280;11179;52.106;21.024;2023-04-19T02:05:38;100696.03;;;8.60;65.75
22031;BME280;11179;52.106;21.024;2023-04-19T02:08:04;100696.41;;;8.63;65.56
22031;BME280;11179;52.106;21.024;2023-04-19T02:10:29;100693.16;;;8.66;65.77
22031;BME280;11179;52.106;21.024;2023-04-19T02:12:55;100686.84;;;8.66;65.67
22031;BME280;11179;52.106;21.024;2023-04-19T02:15:20;100690.56;;;8.60;65.99
22031;BME280;11179;52.106;21.024;2023-04-19T02:17:45;100700.22;;;8.62;66.22
22031;BME280;11179;52.106;21.024;2023-04-19T02:20:11;100695.34;;;8.64;65.99
22031;BME280;11179;52.106;21.024;2023-04-19T02:22:36;100688.44;;;8.62;66.04
22031;BME280;11179;52.106;21.024;2023-04-19T02:25:02;100686.25;;;8.52;66.26
22031;BME280;11179;52.106;21.024;2023-04-19T02:27:28;100691.50;;;8.54;66.42
22031;BME280;11179;52.106;21.024;2023-04-19T02:29:53;100687.34;;;8.51;66.88
22031;BME280;11179;52.106;21.024;2023-04-19T02:32:19;100685.69;;;8.50;66.94
22031;BME280;11179;52.106;21.024;2023-04-19T02:34:44;100689.59;;;8.54;66.97
22031;BME280;11179;52.106;21.024;2023-04-19T02:37:09;100693.53;;;8.58;67.13
22031;BME280;11179;52.106;21.024;2023-04-19T02:39:35;100681.63;;;8.53;67.18
22031;BME280;11179;52.106;21.024;2023-04-19T02:42:00;100682.34;;;8.60;67.20
22031;BME280;11179;52.106;21.024;2023-04-19T02:44:26;100675.44;;;8.57;67.66
22031;BME280;11179;52.106;21.024;2023-04-19T02:46:52;100678.31;;;8.62;67.74
22031;BME280;11179;52.106;21.024;2023-04-19T02:49:18;100657.81;;;8.53;67.54
22031;BME280;11179;52.106;21.024;2023-04-19T02:51:44;100670.34;;;8.61;67.96
22031;BME280;11179;52.106;21.024;2023-04-19T02:54:10;100662.81;;;8.56;67.65
22031;BME280;11179;52.106;21.024;2023-04-19T02:56:36;100658.19;;;8.57;68.34
22031;BME280;11179;52.106;21.024;2023-04-19T02:59:02;100657.13;;;8.58;68.26
22031;BME280;11179;52.106;21.024;2023-04-19T03:01:28;100651.88;;;8.56;68.08
22031;BME280;11179;52.106;21.024;2023-04-19T03:03:54;100639.25;;;8.55;68.12
22031;BME280;11179;52.106;21.024;2023-04-19T03:06:19;100648.91;;;8.58;68.09
22031;BME280;11179;52.106;21.024;2023-04-19T03:08:45;100634.53;;;8.51;68.21
22031;BME280;11179;52.106;21.024;2023-04-19T03:11:11;100639.25;;;8.44;68.36
22031;BME280;11179;52.106;21.024;2023-04-19T03:13:36;100624.28;;;8.34;68.78
22031;BME280;11179;52.106;21.024;2023-04-19T03:16:03;100639.13;;;8.27;68.53
22031;BME280;11179;52.106;21.024;2023-04-19T03:18:29;100631.06;;;8.20;68.99
22031;BME280;11179;52.106;21.024;2023-04-19T03:20:55;100620.06;;;8.09;68.72
22031;BME280;11179;52.106;21.024;2023-04-19T03:23:20;100622.19;;;8.07;69.01
22031;BME280;11179;52.106;21.024;2023-04-19T03:25:46;100617.91;;;7.99;69.18
22031;BME280;11179;52.106;21.024;2023-04-19T03:28:11;100623.03;;;7.95;69.59
22031;BME280;11179;52.106;21.024;2023-04-19T03:30:36;100621.72;;;7.98;69.47
22031;BME280;11179;52.106;21.024;2023-04-19T03:33:02;100611.25;;;7.95;69.56
22031;BME280;11179;52.106;21.024;2023-04-19T03:35:27;100613.75;;;7.96;69.43
22031;BME280;11179;52.106;21.024;2023-04-19T03:37:54;100614.09;;;8.00;69.47
22031;BME280;11179;52.106;21.024;2023-04-19T03:40:20;100607.91;;;7.93;69.35
22031;BME280;11179;52.106;21.024;2023-04-19T03:42:45;100612.63;;;7.86;69.45
22031;BME280;11179;52.106;21.024;2023-04-19T03:45:10;100605.53;;;7.85;69.62
22031;BME280;11179;52.106;21.024;2023-04-19T03:47:36;100616.56;;;7.90;69.63
22031;BME280;11179;52.106;21.024;2023-04-19T03:50:01;100599.81;;;7.86;69.30
22031;BME280;11179;52.106;21.024;2023-04-19T03:52:26;100604.31;;;7.81;69.56
22031;BME280;11179;52.106;21.024;2023-04-19T03:54:52;100605.41;;;7.91;69.46
22031;BME280;11179;52.106;21.024;2023-04-19T03:57:17;100605.41;;;7.91;69.16
22031;BME280;11179;52.106;21.024;2023-04-19T03:59:42;100586.63;;;7.83;69.51
22031;BME280;11179;52.106;21.024;2023-04-19T04:02:08;100591.38;;;7.88;69.45
22031;BME280;11179;52.106;21.024;2023-04-19T04:04:33;100595.16;;;7.87;69.11
22031;BME280;11179;52.106;21.024;2023-04-19T04:06:58;100591.72;;;7.80;69.43
22031;BME280;11179;52.106;21.024;2023-04-19T04:09:24;100579.72;;;7.81;69.28
22031;BME280;11179;52.106;21.024;2023-04-19T04:11:49;100592.56;;;7.92;69.05
22031;BME280;11179;52.106;21.024;2023-04-19T04:14:15;100586.41;;;7.85;69.36
22031;BME280;11179;52.106;21.024;2023-04-19T04:16:40;100589.13;;;7.85;69.43
22031;BME280;11179;52.106;21.024;2023-04-19T04:19:05;100583.28;;;7.81;69.37
22031;BME280;11179;52.106;21.024;2023-04-19T04:21:31;100584.00;;;7.88;69.29
22031;BME280;11179;52.106;21.024;2023-04-19T04:23:56;100584.38;;;7.92;69.39
22031;BME280;11179;52.106;21.024;2023-04-19T04:26:22;100580.09;;;7.96;69.48
22031;BME280;11179;52.106;21.024;2023-04-19T04:28:49;100575.56;;;8.01;69.46
22031;BME280;11179;52.106;21.024;2023-04-19T04:31:14;100581.88;;;8.02;69.08
22031;BME280;11179;52.106;21.024;2023-04-19T04:33:42;100572.38;;;7.93;69.56
22031;BME280;11179;52.106;21.024;2023-04-19T04:36:08;100585.44;;;8.02;69.52
22031;BME280;11179;52.106;21.024;2023-04-19T04:38:36;100584.16;;;8.05;69.57
22031;BME280;11179;52.106;21.024;2023-04-19T04:41:01;100588.53;;;7.94;69.53
22031;BME280;11179;52.106;21.024;2023-04-19T04:43:27;100573.66;;;7.90;69.45
22031;BME280;11179;52.106;21.024;2023-04-19T04:45:53;100580.94;;;7.96;69.27
22031;BME280;11179;52.106;21.024;2023-04-19T04:48:21;100584.63;;;8.02;69.43
22031;BME280;11179;52.106;21.024;2023-04-19T04:50:46;100576.66;;;8.00;69.42
22031;BME280;11179;52.106;21.024;2023-04-19T04:53:11;100585.22;;;8.04;69.40
22031;BME280;11179;52.106;21.024;2023-04-19T04:55:37;100582.84;;;8.08;69.59
22031;BME280;11179;52.106;21.024;2023-04-19T04:58:02;100566.06;;;8.04;69.09
22031;BME280;11179;52.106;21.024;2023-04-19T05:00:30;100570.00;;;8.08;69.36
22031;BME280;11179;52.106;21.024;2023-04-19T05:02:56;100573.56;;;8.09;69.21
22031;BME280;11179;52.106;21.024;2023-04-19T05:05:21;100572.84;;;8.13;69.45
22031;BME280;11179;52.106;21.024;2023-04-19T05:07:46;100577.25;;;8.14;69.33
22031;BME280;11179;52.106;21.024;2023-04-19T05:10:12;100579.09;;;8.20;69.34
22031;BME280;11179;52.106;21.024;2023-04-19T05:12:37;100579.69;;;8.22;69.67
22031;BME280;11179;52.106;21.024;2023-04-19T05:15:03;100567.91;;;8.22;69.61
22031;BME280;11179;52.106;21.024;2023-04-19T05:17:28;100569.91;;;8.26;69.32
22031;BME280;11179;52.106;21.024;2023-04-19T05:19:53;100573.72;;;8.25;69.50
22031;BME280;11179;52.106;21.024;2023-04-19T05:22:19;100573.84;;;8.30;69.27
22031;BME280;11179;52.106;21.024;2023-04-19T05:24:44;100551.81;;;8.25;69.26
22031;BME280;11179;52.106;21.024;2023-04-19T05:27:09;100557.91;;;8.27;69.19
22031;BME280;11179;52.106;21.024;2023-04-19T05:29:35;100550.06;;;8.19;69.53
22031;BME280;11179;52.106;21.024;2023-04-19T05:32:00;100563.59;;;8.26;69.21
22031;BME280;11179;52.106;21.024;2023-04-19T05:34:26;100561.38;;;8.23;69.28
22031;BME280;11179;52.106;21.024;2023-04-19T05:36:51;100534.31;;;8.15;69.56
22031;BME280;11179;52.106;21.024;2023-04-19T05:39:16;100554.69;;;8.30;69.45
22031;BME280;11179;52.106;21.024;2023-04-19T05:41:42;100555.16;;;8.27;69.34
22031;BME280;11179;52.106;21.024;2023-04-19T05:44:08;100547.56;;;8.29;69.53
22031;BME280;11179;52.106;21.024;2023-04-19T05:46:33;100550.06;;;8.31;69.19
22031;BME280;11179;52.106;21.024;2023-04-19T05:48:58;100551.47;;;8.33;69.50
22031;BME280;11179;52.106;21.024;2023-04-19T05:51:24;100549.59;;;8.34;69.59
22031;BME280;11179;52.106;21.024;2023-04-19T05:53:50;100554.69;;;8.30;69.65
22031;BME280;11179;52.106;21.024;2023-04-19T05:56:16;100553.16;;;8.23;70.06
22031;BME280;11179;52.106;21.024;2023-04-19T05:58:41;100554.47;;;8.20;69.96
22031;BME280;11179;52.106;21.024;2023-04-19T06:01:06;100549.34;;;8.24;70.26
22031;BME280;11179;52.106;21.024;2023-04-19T06:03:31;100543.97;;;8.17;70.27
22031;BME280;11179;52.106;21.024;2023-04-19T06:06:00;100552.16;;;8.17;70.07
22031;BME280;11179;52.106;21.024;2023-04-19T06:08:25;100551.56;;;8.15;70.40
22031;BME280;11179;52.106;21.024;2023-04-19T06:10:51;100546.00;;;8.10;70.26
22031;BME280;11179;52.106;21.024;2023-04-19T06:13:16;100555.88;;;8.11;70.46
22031;BME280;11179;52.106;21.024;2023-04-19T06:15:41;100553.47;;;8.15;70.44
22031;BME280;11179;52.106;21.024;2023-04-19T06:18:07;100542.91;;;8.07;70.50
22031;BME280;11179;52.106;21.024;2023-04-19T06:20:38;100535.84;;;7.99;70.55
22031;BME280;11179;52.106;21.024;2023-04-19T06:23:05;100548.00;;;8.03;70.74
22031;BME280;11179;52.106;21.024;2023-04-19T06:25:30;100531.50;;;8.10;70.46
22031;BME280;11179;52.106;21.024;2023-04-19T06:27:56;100537.59;;;8.23;70.81
22031;BME280;11179;52.106;21.024;2023-04-19T06:30:21;100546.34;;;8.25;70.75
22031;BME280;11179;52.106;21.024;2023-04-19T06:32:46;100545.06;;;8.28;70.75
22031;BME280;11179;52.106;21.024;2023-04-19T06:35:12;100545.63;;;8.42;70.61
22031;BME280;11179;52.106;21.024;2023-04-19T06:37:38;100552.44;;;8.51;70.43
22031;BME280;11179;52.106;21.024;2023-04-19T06:40:03;100545.88;;;8.52;70.62
22031;BME280;11179;52.106;21.024;2023-04-19T06:42:31;100557.53;;;8.59;70.36
22031;BME280;11179;52.106;21.024;2023-04-19T06:44:56;100549.06;;;8.60;70.44
22031;BME280;11179;52.106;21.024;2023-04-19T06:47:22;100556.06;;;8.68;70.26
22031;BME280;11179;52.106;21.024;2023-04-19T06:49:47;100557.69;;;8.81;70.25
22031;BME280;11179;52.106;21.024;2023-04-19T06:52:12;100551.75;;;8.84;70.07
22031;BME280;11179;52.106;21.024;2023-04-19T06:54:38;100544.84;;;8.81;69.99
22031;BME280;11179;52.106;21.024;2023-04-19T06:57:03;100547.22;;;8.89;69.89
22031;BME280;11179;52.106;21.024;2023-04-19T06:59:28;100560.41;;;8.92;69.86
22031;BME280;11179;52.106;21.024;2023-04-19T07:01:56;100547.31;;;8.94;70.09
22031;BME280;11179;52.106;21.024;2023-04-19T07:04:22;100545.16;;;8.96;69.81
22031;BME280;11179;52.106;21.024;2023-04-19T07:06:48;100551.56;;;9.02;69.88
22031;BME280;11179;52.106;21.024;2023-04-19T07:09:14;100548.38;;;9.05;69.97
22031;BME280;11179;52.106;21.024;2023-04-19T07:11:39;100545.88;;;9.03;69.70
22031;BME280;11179;52.106;21.024;2023-04-19T07:14:05;100549.81;;;8.96;69.82
22031;BME280;11179;52.106;21.024;2023-04-19T07:16:31;100547.31;;;8.94;69.99
22031;BME280;11179;52.106;21.024;2023-04-19T07:18:56;100545.06;;;8.91;69.75
22031;BME280;11179;52.106;21.024;2023-04-19T07:21:22;100546.47;;;8.94;69.82
22031;BME280;11179;52.106;21.024;2023-04-19T07:23:49;100554.31;;;9.02;69.81
22031;BME280;11179;52.106;21.024;2023-04-19T07:26:14;100540.50;;;8.97;69.64
22031;BME280;11179;52.106;21.024;2023-04-19T07:28:40;100541.59;;;8.96;69.75
22031;BME280;11179;52.106;21.024;2023-04-19T07:31:05;100549.56;;;8.97;69.92
22031;BME280;11179;52.106;21.024;2023-04-19T07:33:31;100558.13;;;9.01;69.92
22031;BME280;11179;52.106;21.024;2023-04-19T07:35:56;100555.41;;;9.01;69.79
22031;BME280;11179;52.106;21.024;2023-04-19T07:38:21;100553.03;;;8.93;69.79
22031;BME280;11179;52.106;21.024;2023-04-19T07:40:47;100548.38;;;8.93;69.91
22031;BME280;11179;52.106;21.024;2023-04-19T07:43:12;100560.63;;;9.02;69.76
22031;BME280;11179;52.106;21.024;2023-04-19T07:45:37;100554.41;;;9.07;69.51
22031;BME280;11179;52.106;21.024;2023-04-19T07:48:03;100542.28;;;9.03;69.80
22031;BME280;11179;52.106;21.024;2023-04-19T07:50:28;100552.59;;;9.13;69.36
22031;BME280;11179;52.106;21.024;2023-04-19T07:52:54;100552.13;;;9.16;69.57
22031;BME280;11179;52.106;21.024;2023-04-19T07:55:21;100542.47;;;9.13;69.62
22031;BME280;11179;52.106;21.024;2023-04-19T07:57:46;100549.47;;;9.21;69.39
22031;BME280;11179;52.106;21.024;2023-04-19T08:00:14;100547.78;;;9.20;69.41
22031;BME280;11179;52.106;21.024;2023-04-19T08:02:43;100552.06;;;9.27;69.36
22031;BME280;11179;52.106;21.024;2023-04-19T08:05:10;100544.69;;;9.28;69.76
22031;BME280;11179;52.106;21.024;2023-04-19T08:07:35;100556.31;;;9.35;69.50
22031;BME280;11179;52.106;21.024;2023-04-19T08:10:00;100545.59;;;9.33;69.53
22031;BME280;11179;52.106;21.024;2023-04-19T08:12:26;100551.19;;;9.38;69.46
22031;BME280;11179;52.106;21.024;2023-04-19T08:14:51;100548.09;;;9.35;69.16
22031;BME280;11179;52.106;21.024;2023-04-19T08:17:16;100551.25;;;9.27;69.36
22031;BME280;11179;52.106;21.024;2023-04-19T08:19:45;100540.41;;;9.20;69.55
22031;BME280;11179;52.106;21.024;2023-04-19T08:22:11;100552.78;;;9.23;69.43
22031;BME280;11179;52.106;21.024;2023-04-19T08:24:36;100540.16;;;9.22;69.55
22031;BME280;11179;52.106;21.024;2023-04-19T08:27:01;100531.88;;;9.33;69.44
22031;BME280;11179;52.106;21.024;2023-04-19T08:29:26;100539.75;;;9.58;68.92
22031;BME280;11179;52.106;21.024;2023-04-19T08:31:52;100537.78;;;9.70;68.84
22031;BME280;11179;52.106;21.024;2023-04-19T08:34:17;100546.94;;;9.76;68.73
22031;BME280;11179;52.106;21.024;2023-04-19T08:36:42;100543.06;;;9.60;68.84
22031;BME280;11179;52.106;21.024;2023-04-19T08:39:08;100547.16;;;9.58;68.76
22031;BME280;11179;52.106;21.024;2023-04-19T08:41:33;100552.13;;;9.61;68.59
22031;BME280;11179;52.106;21.024;2023-04-19T08:43:59;100562.19;;;9.55;68.34
22031;BME280;11179;52.106;21.024;2023-04-19T08:46:25;100556.94;;;9.54;68.39
22031;BME280;11179;52.106;21.024;2023-04-19T08:48:51;100562.59;;;9.64;68.28
22031;BME280;11179;52.106;21.024;2023-04-19T08:51:18;100566.97;;;9.76;68.05
22031;BME280;11179;52.106;21.024;2023-04-19T08:53:44;100553.72;;;9.73;67.47
22031;BME280;11179;52.106;21.024;2023-04-19T08:56:12;100563.25;;;9.83;67.50
22031;BME280;11179;52.106;21.024;2023-04-19T08:58:38;100565.72;;;10.01;67.53
22031;BME280;11179;52.106;21.024;2023-04-19T09:01:05;100559.72;;;10.21;67.07
22031;BME280;11179;52.106;21.024;2023-04-19T09:03:30;100551.88;;;10.29;66.41
22031;BME280;11179;52.106;21.024;2023-04-19T09:05:56;100552.19;;;10.49;66.35
22031;BME280;11179;52.106;21.024;2023-04-19T09:08:29;100559.28;;;10.45;65.54
22031;BME280;11179;52.106;21.024;2023-04-19T09:10:57;100562.50;;;10.42;65.48
22031;BME280;11179;52.106;21.024;2023-04-19T09:13:23;100557.22;;;10.36;65.70
22031;BME280;11179;52.106;21.024;2023-04-19T09:15:49;100564.09;;;10.38;65.46
22031;BME280;11179;52.106;21.024;2023-04-19T09:18:15;100570.88;;;10.53;65.54
22031;BME280;11179;52.106;21.024;2023-04-19T09:20:42;100567.63;;;10.56;65.36
22031;BME280;11179;52.106;21.024;2023-04-19T09:23:12;100559.91;;;10.53;65.02
22031;BME280;11179;52.106;21.024;2023-04-19T09:25:38;100566.94;;;10.65;65.10
22031;BME280;11179;52.106;21.024;2023-04-19T09:28:08;100552.59;;;10.80;65.18
22031;BME280;11179;52.106;21.024;2023-04-19T09:30:35;100554.41;;;10.91;64.54
22031;BME280;11179;52.106;21.024;2023-04-19T09:33:00;100563.81;;;11.17;64.05
22031;BME280;11179;52.106;21.024;2023-04-19T09:35:47;100556.28;;;11.12;63.08
22031;BME280;11179;52.106;21.024;2023-04-19T09:38:14;100566.19;;;10.92;62.51
22031;BME280;11179;52.106;21.024;2023-04-19T09:40:40;100566.50;;;10.95;63.07
22031;BME280;11179;52.106;21.024;2023-04-19T09:43:06;100570.22;;;11.06;62.96
22031;BME280;11179;52.106;21.024;2023-04-19T09:45:42;100574.13;;;11.10;62.79
22031;BME280;11179;52.106;21.024;2023-04-19T09:48:09;100575.22;;;10.87;62.80
22031;BME280;11179;52.106;21.024;2023-04-19T09:50:36;100570.44;;;10.77;63.18
22031;BME280;11179;52.106;21.024;2023-04-19T09:53:02;100567.94;;;10.76;63.48
22031;BME280;11179;52.106;21.024;2023-04-19T09:55:28;100567.53;;;10.67;63.85
22031;BME280;11179;52.106;21.024;2023-04-19T09:57:54;100565.47;;;10.58;63.69
22031;BME280;11179;52.106;21.024;2023-04-19T10:00:21;100575.97;;;10.61;64.09
22031;BME280;11179;52.106;21.024;2023-04-19T10:02:50;100572.72;;;10.64;63.90
22031;BME280;11179;52.106;21.024;2023-04-19T10:05:20;100560.66;;;10.65;63.82
22031;BME280;11179;52.106;21.024;2023-04-19T10:07:46;100567.47;;;10.62;63.81
22031;BME280;11179;52.106;21.024;2023-04-19T10:10:14;100568.13;;;10.53;63.81
22031;BME280;11179;52.106;21.024;2023-04-19T10:12:41;100574.53;;;10.36;64.48
22031;BME280;11179;52.106;21.024;2023-04-19T10:15:10;100561.63;;;10.20;64.29
22031;BME280;11179;52.106;21.024;2023-04-19T10:17:37;100574.69;;;10.30;64.50
22031;BME280;11179;52.106;21.024;2023-04-19T10:20:06;100570.16;;;10.40;64.73
22031;BME280;11179;52.106;21.024;2023-04-19T10:22:34;100567.06;;;10.54;64.25
22031;BME280;11179;52.106;21.024;2023-04-19T10:27:34;100583.63;;;10.59;64.18
22031;BME280;11179;52.106;21.024;2023-04-19T10:30:00;100572.00;;;10.52;64.03
22031;BME280;11179;52.106;21.024;2023-04-19T10:32:42;100576.56;;;10.46;64.35
22031;BME280;11179;52.106;21.024;2023-04-19T10:37:33;100569.09;;;10.41;64.47
22031;BME280;11179;52.106;21.024;2023-04-19T10:39:58;100576.00;;;10.44;64.52
22031;BME280;11179;52.106;21.024;2023-04-19T10:42:24;100577.41;;;10.46;64.60
22031;BME280;11179;52.106;21.024;2023-04-19T10:47:52;100570.63;;;10.54;64.10
22031;BME280;11179;52.106;21.024;2023-04-19T10:50:17;100582.16;;;10.73;64.24
22031;BME280;11179;52.106;21.024;2023-04-19T10:52:43;100579.38;;;10.90;64.25
22031;BME280;11179;52.106;21.024;2023-04-19T10:55:08;100578.91;;;10.98;63.99
22031;BME280;11179;52.106;21.024;2023-04-19T10:58:05;100582.88;;;11.07;63.88
22031;BME280;11179;52.106;21.024;2023-04-19T11:00:31;100577.00;;;11.20;63.91
22031;BME280;11179;52.106;21.024;2023-04-19T11:06:18;100577.41;;;11.29;63.09
22031;BME280;11179;52.106;21.024;2023-04-19T11:08:45;100586.38;;;11.46;62.98
22031;BME280;11179;52.106;21.024;2023-04-19T11:11:11;100587.06;;;11.58;62.85
22031;BME280;11179;52.106;21.024;2023-04-19T11:13:41;100581.03;;;11.61;62.65
22031;BME280;11179;52.106;21.024;2023-04-19T11:16:07;100587.34;;;11.88;62.66
22031;BME280;11179;52.106;21.024;2023-04-19T11:18:33;100581.47;;;12.12;62.33
22031;BME280;11179;52.106;21.024;2023-04-19T11:20:58;100591.56;;;12.33;61.84
22031;BME280;11179;52.106;21.024;2023-04-19T11:23:25;100587.19;;;12.37;61.44
22031;BME280;11179;52.106;21.024;2023-04-19T11:25:50;100594.44;;;12.48;61.17
22031;BME280;11179;52.106;21.024;2023-04-19T11:28:17;100594.50;;;12.58;60.91
22031;BME280;11179;52.106;21.024;2023-04-19T11:30:42;100589.31;;;12.67;60.72
22031;BME280;11179;52.106;21.024;2023-04-19T11:33:11;100585.84;;;12.87;60.29
22031;BME280;11179;52.106;21.024;2023-04-19T11:35:36;100578.75;;;13.01;59.97
22031;BME280;11179;52.106;21.024;2023-04-19T11:38:02;100574.94;;;13.12;59.66
22031;BME280;11179;52.106;21.024;2023-04-19T11:40:29;100582.13;;;13.23;59.42
22031;BME280;11179;52.106;21.024;2023-04-19T11:43:01;100573.09;;;13.38;59.14
22031;BME280;11179;52.106;21.024;2023-04-19T11:45:28;100567.88;;;13.52;59.04
22031;BME280;11179;52.106;21.024;2023-04-19T11:47:54;100565.47;;;13.71;58.72
22031;BME280;11179;52.106;21.024;2023-04-19T11:50:39;100562.16;;;14.09;58.05
22031;BME280;11179;52.106;21.024;2023-04-19T11:53:21;100557.72;;;14.18;57.59
22031;BME280;11179;52.106;21.024;2023-04-19T11:55:49;100554.13;;;14.28;57.60
22031;BME280;11179;52.106;21.024;2023-04-19T11:58:36;100562.41;;;14.33;57.08
22031;BME280;11179;52.106;21.024;2023-04-19T12:03:30;100567.41;;;14.11;57.07
22031;BME280;11179;52.106;21.024;2023-04-19T12:06:13;100572.94;;;13.95;57.33
22031;BME280;11179;52.106;21.024;2023-04-19T12:08:42;100579.00;;;14.08;57.03
22031;BME280;11179;52.106;21.024;2023-04-19T12:11:08;100580.63;;;14.14;56.47
22031;BME280;11179;52.106;21.024;2023-04-19T12:13:34;100577.34;;;14.22;56.19
22031;BME280;11179;52.106;21.024;2023-04-19T12:16:00;100571.53;;;14.28;55.95
22031;BME280;11179;52.106;21.024;2023-04-19T12:18:26;100582.88;;;14.22;56.08
22031;BME280;11179;52.106;21.024;2023-04-19T12:20:52;100588.63;;;13.70;56.00
22031;BME280;11179;52.106;21.024;2023-04-19T12:23:19;100585.22;;;13.47;56.70
22031;BME280;11179;52.106;21.024;2023-04-19T12:25:46;100583.84;;;13.45;56.89
22031;BME280;11179;52.106;21.024;2023-04-19T12:28:14;100583.88;;;13.50;57.06
22031;BME280;11179;52.106;21.024;2023-04-19T12:30:40;100583.88;;;13.50;57.18
22031;BME280;11179;52.106;21.024;2023-04-19T12:33:06;100585.50;;;13.46;57.29
22031;BME280;11179;52.106;21.024;2023-04-19T12:35:32;100594.91;;;13.50;57.47
22031;BME280;11179;52.106;21.024;2023-04-19T12:37:58;100601.22;;;13.45;57.10
22031;BME280;11179;52.106;21.024;2023-04-19T12:40:25;100592.94;;;13.35;57.57
22031;BME280;11179;52.106;21.024;2023-04-19T12:42:51;100603.16;;;13.40;57.61
22031;BME280;11179;52.106;21.024;2023-04-19T12:45:18;100591.53;;;13.32;57.77
22031;BME280;11179;52.106;21.024;2023-04-19T12:47:46;100600.38;;;13.34;57.81
22031;BME280;11179;52.106;21.024;2023-04-19T12:50:12;100604.78;;;13.30;57.61
22031;BME280;11179;52.106;21.024;2023-04-19T12:52:38;100597.63;;;13.29;57.56
22031;BME280;11179;52.106;21.024;2023-04-19T12:55:04;100596.50;;;13.25;57.21